Terminal Aerodrome Forecast
Issued by NWS

Current Version | Previous Version | Graphics & Text | Print | Product List | Glossary On
Versions: 1 2 3 4 5 6 7 8 9 10 11 12 13 14 15 16 17 18 19 20 21 22 23 24 25
290
FTUS41 KPBZ 270148 AAB
TAFMGW
TAF AMD
KMGW 270148Z 2702/2724 12006KT P6SM BKN045
     FM270700 18006KT P6SM VCSH OVC045
     FM271000 21006KT P6SM VCSH OVC025
     FM271100 22005KT P6SM BKN025
     FM271400 23006KT P6SM BKN045=

USA.gov is the U.S. government's official web portal to all federal, state and local government web resources and services.